Larue, Pennsylvania
Current Conditions -  °F | °C
As of 12:53 AM on Thursday 29 Jan 2015 (Local Time) from KTHV Reporting Station
Clear Clear  
Wind Chill:   Ceiling: Unl
Heat Index:   Visibility: 10mi
Dew Point:   Wind: 0mph
Humidity: 76%   Direction: NA
Pressure: 30.31"   Gusts: NA
Location:  39.7757°N, 76.7605°W
Report Text: KTHV 290553Z AUTO 00000KT 10SM CLR M14/M18 A3031 RMK AO2 SLP274 T11441178 11078 21156 50002
Loading
Personal Weather Stations






























Interactive Weather Map New forecast layout! Learn more

10-Day Weather Forecast

Advertisements
Track Severe Weather on mobile